sensor_id;sensor_type;location;lat;lon;timestamp;pressure;altitude;pressure_sealevel;temperature;humidity
50550;BME280;36505;52.512;13.460;2023-09-19T00:00:23;100094.53;;;18.62;84.78
50550;BME280;36505;52.512;13.460;2023-09-19T00:02:55;100094.03;;;18.60;84.94
50550;BME280;36505;52.512;13.460;2023-09-19T00:05:27;100093.28;;;18.54;85.03
50550;BME280;36505;52.512;13.460;2023-09-19T00:07:54;100094.94;;;18.55;85.00
50550;BME280;36505;52.512;13.460;2023-09-19T00:10:21;100085.50;;;18.56;85.09
50550;BME280;36505;52.512;13.460;2023-09-19T00:12:50;100101.81;;;18.58;85.06
50550;BME280;36505;52.512;13.460;2023-09-19T00:15:17;100095.44;;;18.57;85.01
50550;BME280;36505;52.512;13.460;2023-09-19T00:17:43;100091.66;;;18.53;85.51
50550;BME280;36505;52.512;13.460;2023-09-19T00:20:09;100088.66;;;18.49;84.96
50550;BME280;36505;52.512;13.460;2023-09-19T00:22:41;100091.44;;;18.49;85.05
50550;BME280;36505;52.512;13.460;2023-09-19T00:25:09;100078.72;;;18.48;84.75
50550;BME280;36505;52.512;13.460;2023-09-19T00:27:40;100073.28;;;18.43;85.05
50550;BME280;36505;52.512;13.460;2023-09-19T00:30:11;100081.59;;;18.43;84.82
50550;BME280;36505;52.512;13.460;2023-09-19T00:32:47;100082.25;;;18.40;85.16
50550;BME280;36505;52.512;13.460;2023-09-19T00:35:16;100083.06;;;18.41;85.16
50550;BME280;36505;52.512;13.460;2023-09-19T00:37:41;100081.22;;;18.36;85.15
50550;BME280;36505;52.512;13.460;2023-09-19T00:40:08;100084.50;;;18.38;84.74
50550;BME280;36505;52.512;13.460;2023-09-19T00:42:45;100078.78;;;18.35;84.91
50550;BME280;36505;52.512;13.460;2023-09-19T00:45:13;100086.06;;;18.31;85.06
50550;BME280;36505;52.512;13.460;2023-09-19T00:47:56;100092.53;;;18.26;85.34
50550;BME280;36505;52.512;13.460;2023-09-19T00:50:24;100083.72;;;18.24;85.40
50550;BME280;36505;52.512;13.460;2023-09-19T00:52:54;100083.19;;;18.22;85.42
50550;BME280;36505;52.512;13.460;2023-09-19T00:55:24;100087.41;;;18.20;85.50
50550;BME280;36505;52.512;13.460;2023-09-19T00:57:50;100088.66;;;18.13;85.69
50550;BME280;36505;52.512;13.460;2023-09-19T01:00:16;100093.09;;;18.14;86.07
50550;BME280;36505;52.512;13.460;2023-09-19T01:02:44;100087.22;;;18.16;85.80
50550;BME280;36505;52.512;13.460;2023-09-19T01:05:10;100084.44;;;18.16;85.79
50550;BME280;36505;52.512;13.460;2023-09-19T01:07:36;100090.81;;;18.16;85.77
50550;BME280;36505;52.512;13.460;2023-09-19T01:10:06;100088.38;;;18.15;85.47
50550;BME280;36505;52.512;13.460;2023-09-19T01:12:51;100088.38;;;18.15;85.94
50550;BME280;36505;52.512;13.460;2023-09-19T01:15:44;100084.56;;;18.11;86.30
50550;BME280;36505;52.512;13.460;2023-09-19T01:21:05;100093.50;;;18.08;85.88
50550;BME280;36505;52.512;13.460;2023-09-19T01:29:39;100094.41;;;18.03;85.91
50550;BME280;36505;52.512;13.460;2023-09-19T01:32:10;100086.41;;;18.02;86.08
50550;BME280;36505;52.512;13.460;2023-09-19T01:37:20;100093.00;;;18.06;85.65
50550;BME280;36505;52.512;13.460;2023-09-19T01:39:56;100088.88;;;18.03;85.53
50550;BME280;36505;52.512;13.460;2023-09-19T01:42:40;100094.41;;;18.03;85.65
50550;BME280;36505;52.512;13.460;2023-09-19T01:48:08;100096.47;;;18.11;85.34
50550;BME280;36505;52.512;13.460;2023-09-19T01:53:37;100089.88;;;18.21;85.37
50550;BME280;36505;52.512;13.460;2023-09-19T01:56:08;100099.81;;;18.22;85.17
50550;BME280;36505;52.512;13.460;2023-09-19T01:58:42;100092.66;;;18.21;84.45
50550;BME280;36505;52.512;13.460;2023-09-19T02:01:12;100091.19;;;18.24;84.66
50550;BME280;36505;52.512;13.460;2023-09-19T02:03:41;100097.78;;;18.28;84.15
50550;BME280;36505;52.512;13.460;2023-09-19T02:06:14;100094.69;;;18.29;84.20
50550;BME280;36505;52.512;13.460;2023-09-19T02:08:41;100098.59;;;18.28;83.77
50550;BME280;36505;52.512;13.460;2023-09-19T02:11:06;100100.56;;;18.28;83.84
50550;BME280;36505;52.512;13.460;2023-09-19T02:13:31;100104.22;;;18.23;83.82
50550;BME280;36505;52.512;13.460;2023-09-19T02:15:57;100103.63;;;18.26;84.16
50550;BME280;36505;52.512;13.460;2023-09-19T02:18:23;100110.28;;;18.25;84.00
50550;BME280;36505;52.512;13.460;2023-09-19T02:20:48;100105.06;;;18.24;84.23
50550;BME280;36505;52.512;13.460;2023-09-19T02:23:14;100114.50;;;18.23;84.24
50550;BME280;36505;52.512;13.460;2023-09-19T02:25:41;100116.44;;;18.22;84.15
50550;BME280;36505;52.512;13.460;2023-09-19T02:28:06;100125.41;;;18.19;84.05
50550;BME280;36505;52.512;13.460;2023-09-19T02:30:34;100118.84;;;18.15;84.36
50550;BME280;36505;52.512;13.460;2023-09-19T02:33:00;100134.66;;;18.14;84.36
50550;BME280;36505;52.512;13.460;2023-09-19T02:35:28;100131.06;;;18.14;84.29
50550;BME280;36505;52.512;13.460;2023-09-19T02:37:58;100134.66;;;18.14;84.29
50550;BME280;36505;52.512;13.460;2023-09-19T02:40:23;100123.56;;;18.14;84.08
50550;BME280;36505;52.512;13.460;2023-09-19T02:42:53;100123.88;;;18.13;84.14
50550;BME280;36505;52.512;13.460;2023-09-19T02:45:19;100130.22;;;18.13;84.30
50550;BME280;36505;52.512;13.460;2023-09-19T02:47:46;100131.34;;;18.12;84.19
50550;BME280;36505;52.512;13.460;2023-09-19T02:50:12;100134.94;;;18.13;84.14
50550;BME280;36505;52.512;13.460;2023-09-19T02:52:41;100132.19;;;18.13;84.44
50550;BME280;36505;52.512;13.460;2023-09-19T02:55:09;100144.09;;;18.13;84.04
50550;BME280;36505;52.512;13.460;2023-09-19T02:57:35;100144.38;;;18.12;83.94
50550;BME280;36505;52.512;13.460;2023-09-19T03:00:02;100146.63;;;18.10;84.13
50550;BME280;36505;52.512;13.460;2023-09-19T03:02:28;100150.53;;;18.09;84.32
50550;BME280;36505;52.512;13.460;2023-09-19T03:04:54;100146.16;;;18.08;84.75
50550;BME280;36505;52.512;13.460;2023-09-19T03:07:19;100151.16;;;18.06;84.55
50550;BME280;36505;52.512;13.460;2023-09-19T03:09:45;100157.53;;;18.06;84.80
50550;BME280;36505;52.512;13.460;2023-09-19T03:12:11;100166.66;;;18.07;84.62
50550;BME280;36505;52.512;13.460;2023-09-19T03:14:36;100157.84;;;18.05;84.42
50550;BME280;36505;52.512;13.460;2023-09-19T03:17:02;100165.03;;;18.06;84.79
50550;BME280;36505;52.512;13.460;2023-09-19T03:19:30;100164.38;;;18.09;84.02
50550;BME280;36505;52.512;13.460;2023-09-19T03:21:59;100153.31;;;18.09;84.27
50550;BME280;36505;52.512;13.460;2023-09-19T03:24:24;100163.56;;;18.08;83.87
50550;BME280;36505;52.512;13.460;2023-09-19T03:26:49;100166.03;;;18.10;83.49
50550;BME280;36505;52.512;13.460;2023-09-19T03:29:15;100173.22;;;18.11;83.21
50550;BME280;36505;52.512;13.460;2023-09-19T03:31:42;100176.00;;;18.11;82.77
50550;BME280;36505;52.512;13.460;2023-09-19T03:34:08;100174.66;;;18.08;82.32
50550;BME280;36505;52.512;13.460;2023-09-19T03:36:34;100175.81;;;18.07;82.12
50550;BME280;36505;52.512;13.460;2023-09-19T03:39:00;100175.56;;;18.04;81.85
50550;BME280;36505;52.512;13.460;2023-09-19T03:41:25;100182.25;;;18.03;81.92
50550;BME280;36505;52.512;13.460;2023-09-19T03:43:51;100182.25;;;18.03;81.35
50550;BME280;36505;52.512;13.460;2023-09-19T03:46:16;100188.59;;;18.03;81.01
50550;BME280;36505;52.512;13.460;2023-09-19T03:48:42;100181.41;;;18.02;80.58
50550;BME280;36505;52.512;13.460;2023-09-19T03:51:07;100179.59;;;17.98;80.63
50550;BME280;36505;52.512;13.460;2023-09-19T03:53:33;100191.78;;;17.97;80.13
50550;BME280;36505;52.512;13.460;2023-09-19T03:55:58;100190.47;;;17.94;80.30
50550;BME280;36505;52.512;13.460;2023-09-19T03:58:25;100188.09;;;17.88;79.75
50550;BME280;36505;52.512;13.460;2023-09-19T04:00:55;100186.75;;;17.85;79.60
50550;BME280;36505;52.512;13.460;2023-09-19T04:03:20;100199.78;;;17.85;79.54
50550;BME280;36505;52.512;13.460;2023-09-19T04:05:46;100194.53;;;17.83;79.66
50550;BME280;36505;52.512;13.460;2023-09-19T04:08:13;100196.47;;;17.83;79.67
50550;BME280;36505;52.512;13.460;2023-09-19T04:10:44;100199.25;;;17.83;79.27
50550;BME280;36505;52.512;13.460;2023-09-19T04:13:10;100197.31;;;17.83;78.80
50550;BME280;36505;52.512;13.460;2023-09-19T04:15:36;100190.44;;;17.81;78.93
50550;BME280;36505;52.512;13.460;2023-09-19T04:18:03;100202.44;;;17.76;78.36
50550;BME280;36505;52.512;13.460;2023-09-19T04:20:28;100204.47;;;17.70;78.25
50550;BME280;36505;52.512;13.460;2023-09-19T04:22:54;100196.75;;;17.67;77.87
50550;BME280;36505;52.512;13.460;2023-09-19T04:25:20;100206.00;;;17.63;77.55
50550;BME280;36505;52.512;13.460;2023-09-19T04:27:46;100205.16;;;17.62;77.06
50550;BME280;36505;52.512;13.460;2023-09-19T04:30:14;100210.78;;;17.57;76.59
50550;BME280;36505;52.512;13.460;2023-09-19T04:32:40;100217.44;;;17.56;76.30
50550;BME280;36505;52.512;13.460;2023-09-19T04:35:10;100221.31;;;17.55;75.87
50550;BME280;36505;52.512;13.460;2023-09-19T04:37:39;100221.31;;;17.55;75.50
50550;BME280;36505;52.512;13.460;2023-09-19T04:40:09;100228.31;;;17.53;75.58
50550;BME280;36505;52.512;13.460;2023-09-19T04:42:40;100236.38;;;17.49;75.22
50550;BME280;36505;52.512;13.460;2023-09-19T04:45:06;100232.78;;;17.49;75.39
50550;BME280;36505;52.512;13.460;2023-09-19T04:47:32;100234.44;;;17.50;75.49
50550;BME280;36505;52.512;13.460;2023-09-19T04:49:57;100240.50;;;17.52;75.73
50550;BME280;36505;52.512;13.460;2023-09-19T04:52:24;100243.56;;;17.50;75.18
50550;BME280;36505;52.512;13.460;2023-09-19T04:54:50;100233.91;;;17.48;75.18
50550;BME280;36505;52.512;13.460;2023-09-19T04:57:15;100238.31;;;17.49;75.49
50550;BME280;36505;52.512;13.460;2023-09-19T04:59:41;100245.78;;;17.48;75.63
50550;BME280;36505;52.512;13.460;2023-09-19T05:02:06;100246.31;;;17.50;75.29
50550;BME280;36505;52.512;13.460;2023-09-19T05:04:33;100252.16;;;17.49;75.18
50550;BME280;36505;52.512;13.460;2023-09-19T05:06:58;100253.28;;;17.48;74.96
50550;BME280;36505;52.512;13.460;2023-09-19T05:09:25;100252.44;;;17.47;75.04
50550;BME280;36505;52.512;13.460;2023-09-19T05:11:50;100253.28;;;17.48;74.85
50550;BME280;36505;52.512;13.460;2023-09-19T05:14:16;100259.13;;;17.46;74.64
50550;BME280;36505;52.512;13.460;2023-09-19T05:16:42;100258.00;;;17.47;74.78
50550;BME280;36505;52.512;13.460;2023-09-19T05:19:08;100263.53;;;17.47;74.63
50550;BME280;36505;52.512;13.460;2023-09-19T05:21:37;100274.28;;;17.49;74.64
50550;BME280;36505;52.512;13.460;2023-09-19T05:24:05;100267.94;;;17.48;74.11
50550;BME280;36505;52.512;13.460;2023-09-19T05:26:32;100269.59;;;17.49;73.77
50550;BME280;36505;52.512;13.460;2023-09-19T05:28:57;100280.94;;;17.48;74.29
50550;BME280;36505;52.512;13.460;2023-09-19T05:31:22;100285.66;;;17.47;73.91
50550;BME280;36505;52.512;13.460;2023-09-19T05:33:49;100285.66;;;17.47;73.83
50550;BME280;36505;52.512;13.460;2023-09-19T05:36:15;100286.00;;;17.46;73.71
50550;BME280;36505;52.512;13.460;2023-09-19T05:38:42;100287.09;;;17.45;74.31
50550;BME280;36505;52.512;13.460;2023-09-19T05:41:08;100288.97;;;17.49;73.87
50550;BME280;36505;52.512;13.460;2023-09-19T05:43:35;100302.50;;;17.51;73.58
50550;BME280;36505;52.512;13.460;2023-09-19T05:46:02;100300.78;;;17.55;73.57
50550;BME280;36505;52.512;13.460;2023-09-19T05:48:28;100304.59;;;17.59;73.11
50550;BME280;36505;52.512;13.460;2023-09-19T05:50:53;100307.38;;;17.59;73.13
50550;BME280;36505;52.512;13.460;2023-09-19T05:53:19;100321.44;;;17.62;73.20
50550;BME280;36505;52.512;13.460;2023-09-19T05:55:45;100320.88;;;17.65;72.56
50550;BME280;36505;52.512;13.460;2023-09-19T05:58:11;100317.47;;;17.68;72.62
50550;BME280;36505;52.512;13.460;2023-09-19T06:00:39;100333.19;;;17.73;72.43
50550;BME280;36505;52.512;13.460;2023-09-19T06:03:07;100333.63;;;17.80;72.38
50550;BME280;36505;52.512;13.460;2023-09-19T06:05:33;100343.94;;;17.93;72.15
50550;BME280;36505;52.512;13.460;2023-09-19T06:07:58;100341.72;;;18.09;71.46
50550;BME280;36505;52.512;13.460;2023-09-19T06:10:28;100354.78;;;18.22;70.61
50550;BME280;36505;52.512;13.460;2023-09-19T06:12:54;100351.00;;;18.32;70.86
50550;BME280;36505;52.512;13.460;2023-09-19T06:15:20;100358.81;;;18.43;70.12
50550;BME280;36505;52.512;13.460;2023-09-19T06:17:49;100359.28;;;18.64;69.59
50550;BME280;36505;52.512;13.460;2023-09-19T06:20:15;100361.75;;;18.79;68.95
50550;BME280;36505;52.512;13.460;2023-09-19T06:22:44;100369.66;;;19.00;67.90
50550;BME280;36505;52.512;13.460;2023-09-19T06:25:11;100366.47;;;19.20;67.67
50550;BME280;36505;52.512;13.460;2023-09-19T06:27:38;100375.59;;;19.34;67.12
50550;BME280;36505;52.512;13.460;2023-09-19T06:30:06;100357.28;;;19.47;66.11
50550;BME280;36505;52.512;13.460;2023-09-19T06:32:33;100370.00;;;19.61;65.57
50550;BME280;36505;52.512;13.460;2023-09-19T06:34:58;100365.91;;;19.81;64.87
50550;BME280;36505;52.512;13.460;2023-09-19T06:37:27;100362.09;;;19.99;63.15
50550;BME280;36505;52.512;13.460;2023-09-19T06:39:53;100373.03;;;20.18;63.18
50550;BME280;36505;52.512;13.460;2023-09-19T06:42:18;100378.72;;;20.35;62.09
50550;BME280;36505;52.512;13.460;2023-09-19T06:44:44;100383.72;;;20.47;62.01
50550;BME280;36505;52.512;13.460;2023-09-19T06:47:09;100385.41;;;20.96;60.13
50550;BME280;36505;52.512;13.460;2023-09-19T06:49:36;100387.16;;;21.32;58.55
50550;BME280;36505;52.512;13.460;2023-09-19T06:52:01;100389.19;;;21.48;58.25
50550;BME280;36505;52.512;13.460;2023-09-19T06:54:27;100383.09;;;21.63;57.86
50550;BME280;36505;52.512;13.460;2023-09-19T06:56:59;100387.56;;;21.82;57.55
50550;BME280;36505;52.512;13.460;2023-09-19T06:59:24;100388.72;;;21.98;56.13
50550;BME280;36505;52.512;13.460;2023-09-19T07:01:50;100391.97;;;22.26;55.80
50550;BME280;36505;52.512;13.460;2023-09-19T07:04:16;100386.09;;;22.74;54.04
50550;BME280;36505;52.512;13.460;2023-09-19T07:06:42;100379.22;;;23.39;51.67
50550;BME280;36505;52.512;13.460;2023-09-19T07:09:08;100387.78;;;24.17;50.06
50550;BME280;36505;52.512;13.460;2023-09-19T07:11:34;100384.41;;;24.89;47.90
50550;BME280;36505;52.512;13.460;2023-09-19T07:13:59;100390.53;;;25.80;45.79
50550;BME280;36505;52.512;13.460;2023-09-19T07:16:24;100388.63;;;26.52;43.91
50550;BME280;36505;52.512;13.460;2023-09-19T07:18:54;100389.97;;;26.58;43.39
50550;BME280;36505;52.512;13.460;2023-09-19T07:21:22;100400.69;;;26.24;44.04
50550;BME280;36505;52.512;13.460;2023-09-19T07:23:48;100394.22;;;26.24;44.34
50550;BME280;36505;52.512;13.460;2023-09-19T07:26:13;100411.72;;;26.05;43.87
50550;BME280;36505;52.512;13.460;2023-09-19T07:28:39;100403.88;;;26.11;43.37
50550;BME280;36505;52.512;13.460;2023-09-19T07:31:04;100410.84;;;25.89;43.79
50550;BME280;36505;52.512;13.460;2023-09-19T07:33:30;100411.94;;;25.48;44.30
50550;BME280;36505;52.512;13.460;2023-09-19T07:35:56;100405.28;;;24.92;45.39
50550;BME280;36505;52.512;13.460;2023-09-19T07:38:21;100417.84;;;24.28;47.25
50550;BME280;36505;52.512;13.460;2023-09-19T07:40:48;100430.97;;;23.95;47.95
50550;BME280;36505;52.512;13.460;2023-09-19T07:43:13;100419.38;;;24.17;47.39
50550;BME280;36505;52.512;13.460;2023-09-19T07:45:39;100425.19;;;24.66;45.84
50550;BME280;36505;52.512;13.460;2023-09-19T07:48:05;100430.81;;;24.33;46.59
50550;BME280;36505;52.512;13.460;2023-09-19T07:50:33;100424.97;;;24.17;46.28
50550;BME280;36505;52.512;13.460;2023-09-19T07:53:02;100425.44;;;23.86;46.92
50550;BME280;36505;52.512;13.460;2023-09-19T07:55:30;100443.00;;;23.66;47.99
50550;BME280;36505;52.512;13.460;2023-09-19T07:57:55;100442.31;;;24.11;47.21
50550;BME280;36505;52.512;13.460;2023-09-19T08:00:21;100446.72;;;24.53;45.99
50550;BME280;36505;52.512;13.460;2023-09-19T08:02:46;100454.63;;;24.84;45.60
50550;BME280;36505;52.512;13.460;2023-09-19T08:05:13;100463.59;;;25.10;44.77
50550;BME280;36505;52.512;13.460;2023-09-19T08:07:43;100458.50;;;24.92;43.88
50550;BME280;36505;52.512;13.460;2023-09-19T08:10:09;100453.63;;;25.25;43.31
50550;BME280;36505;52.512;13.460;2023-09-19T08:12:42;100457.06;;;24.86;43.05
50550;BME280;36505;52.512;13.460;2023-09-19T08:15:15;100453.75;;;24.59;43.75
50550;BME280;36505;52.512;13.460;2023-09-19T08:17:41;100443.78;;;24.83;43.20
50550;BME280;36505;52.512;13.460;2023-09-19T08:20:08;100433.00;;;25.30;42.53
50550;BME280;36505;52.512;13.460;2023-09-19T08:22:40;100447.81;;;25.18;43.50
50550;BME280;36505;52.512;13.460;2023-09-19T08:25:06;100449.53;;;24.98;42.88
50550;BME280;36505;52.512;13.460;2023-09-19T08:27:32;100455.50;;;24.64;43.64
50550;BME280;36505;52.512;13.460;2023-09-19T08:29:57;100460.00;;;24.23;43.06
50550;BME280;36505;52.512;13.460;2023-09-19T08:32:23;100461.19;;;24.01;44.06
50550;BME280;36505;52.512;13.460;2023-09-19T08:34:50;100462.38;;;24.13;43.92
50550;BME280;36505;52.512;13.460;2023-09-19T08:37:16;100456.75;;;24.21;43.54
50550;BME280;36505;52.512;13.460;2023-09-19T08:39:42;100469.38;;;24.27;43.79
50550;BME280;36505;52.512;13.460;2023-09-19T08:42:08;100461.78;;;24.94;42.71
50550;BME280;36505;52.512;13.460;2023-09-19T08:44:36;100461.50;;;26.08;40.26
50550;BME280;36505;52.512;13.460;2023-09-19T08:47:15;100461.31;;;26.85;39.37
50550;BME280;36505;52.512;13.460;2023-09-19T08:49:53;100466.06;;;27.12;38.39
50550;BME280;36505;52.512;13.460;2023-09-19T08:52:27;100473.41;;;27.64;37.12
50550;BME280;36505;52.512;13.460;2023-09-19T08:54:58;100470.44;;;28.26;35.73
50550;BME280;36505;52.512;13.460;2023-09-19T08:57:28;100477.69;;;28.27;34.92
50550;BME280;36505;52.512;13.460;2023-09-19T08:59:55;100483.25;;;28.24;35.09
50550;BME280;36505;52.512;13.460;2023-09-19T09:02:22;100479.69;;;28.65;34.55
50550;BME280;36505;52.512;13.460;2023-09-19T09:04:49;100477.75;;;29.12;34.00
50550;BME280;36505;52.512;13.460;2023-09-19T09:07:16;100484.69;;;29.63;33.22
50550;BME280;36505;52.512;13.460;2023-09-19T09:09:44;100487.34;;;29.53;33.10
50550;BME280;36505;52.512;13.460;2023-09-19T09:12:14;100487.97;;;29.20;33.45
50550;BME280;36505;52.512;13.460;2023-09-19T09:14:43;100483.25;;;29.99;32.65
50550;BME280;36505;52.512;13.460;2023-09-19T09:17:10;100495.41;;;30.63;31.37
50550;BME280;36505;52.512;13.460;2023-09-19T09:19:35;100493.66;;;30.88;31.37
50550;BME280;36505;52.512;13.460;2023-09-19T09:22:09;100492.91;;;30.58;30.62
50550;BME280;36505;52.512;13.460;2023-09-19T09:24:35;100495.31;;;30.56;31.16
50550;BME280;36505;52.512;13.460;2023-09-19T09:27:06;100504.06;;;30.81;30.52
50550;BME280;36505;52.512;13.460;2023-09-19T09:29:45;100490.41;;;31.74;29.53
50550;BME280;36505;52.512;13.460;2023-09-19T09:32:21;100486.09;;;31.40;29.46
50550;BME280;36505;52.512;13.460;2023-09-19T09:34:50;100495.66;;;31.69;29.03
50550;BME280;36505;52.512;13.460;2023-09-19T09:37:16;100502.06;;;30.81;30.48
50550;BME280;36505;52.512;13.460;2023-09-19T09:39:53;100489.28;;;31.31;29.73
50550;BME280;36505;52.512;13.460;2023-09-19T09:42:34;100495.78;;;32.66;27.78
50550;BME280;36505;52.512;13.460;2023-09-19T09:45:24;100498.34;;;33.17;26.82
50550;BME280;36505;52.512;13.460;2023-09-19T09:48:00;100500.75;;;32.94;27.10
50550;BME280;36505;52.512;13.460;2023-09-19T09:50:36;100497.72;;;32.44;27.76
50550;BME280;36505;52.512;13.460;2023-09-19T09:56:08;100502.06;;;30.81;28.98
50550;BME280;36505;52.512;13.460;2023-09-19T09:58:36;100505.34;;;30.87;29.31
50550;BME280;36505;52.512;13.460;2023-09-19T10:01:03;100500.34;;;31.51;28.70
50550;BME280;36505;52.512;13.460;2023-09-19T10:03:37;100498.81;;;32.19;27.53
50550;BME280;36505;52.512;13.460;2023-09-19T10:06:13;100509.19;;;32.76;26.84
50550;BME280;36505;52.512;13.460;2023-09-19T10:09:03;100519.78;;;32.10;27.43
50550;BME280;36505;52.512;13.460;2023-09-19T10:12:06;100515.00;;;32.18;26.20
50550;BME280;36505;52.512;13.460;2023-09-19T10:14:35;100516.00;;;32.54;25.46
50550;BME280;36505;52.512;13.460;2023-09-19T10:17:05;100515.97;;;32.47;26.21
50550;BME280;36505;52.512;13.460;2023-09-19T10:19:45;100519.53;;;32.37;26.68
50550;BME280;36505;52.512;13.460;2023-09-19T10:22:16;100524.47;;;32.50;25.59
50550;BME280;36505;52.512;13.460;2023-09-19T10:24:47;100513.56;;;32.52;25.29
50550;BME280;36505;52.512;13.460;2023-09-19T10:27:12;100495.31;;;31.77;25.74
50550;BME280;36505;52.512;13.460;2023-09-19T10:29:42;100505.31;;;31.20;26.97
50550;BME280;36505;52.512;13.460;2023-09-19T10:32:10;100513.97;;;31.01;26.82
50550;BME280;36505;52.512;13.460;2023-09-19T10:34:43;100499.47;;;30.36;27.95
50550;BME280;36505;52.512;13.460;2023-09-19T10:37:12;100507.13;;;30.05;28.60
50550;BME280;36505;52.512;13.460;2023-09-19T10:39:39;100502.09;;;29.69;28.43
50550;BME280;36505;52.512;13.460;2023-09-19T10:42:06;100510.78;;;29.11;29.21
50550;BME280;36505;52.512;13.460;2023-09-19T10:44:37;100494.53;;;28.43;29.50
50550;BME280;36505;52.512;13.460;2023-09-19T10:47:05;100508.47;;;27.85;30.17
50550;BME280;36505;52.512;13.460;2023-09-19T10:49:32;100504.56;;;27.55;30.95
50550;BME280;36505;52.512;13.460;2023-09-19T10:51:59;100507.44;;;27.43;31.26
50550;BME280;36505;52.512;13.460;2023-09-19T10:54:30;100502.72;;;27.31;31.21
50550;BME280;36505;52.512;13.460;2023-09-19T10:56:58;100499.06;;;27.31;31.51
50550;BME280;36505;52.512;13.460;2023-09-19T10:59:25;100511.06;;;27.28;31.60
50550;BME280;36505;52.512;13.460;2023-09-19T11:01:51;100508.88;;;27.21;31.25
50550;BME280;36505;52.512;13.460;2023-09-19T11:04:33;100510.78;;;27.01;30.88
50550;BME280;36505;52.512;13.460;2023-09-19T11:09:48;100509.44;;;26.55;31.41
50550;BME280;36505;52.512;13.460;2023-09-19T11:14:51;100500.25;;;25.90;32.14
50550;BME280;36505;52.512;13.460;2023-09-19T11:30:41;100521.38;;;24.28;35.32
50550;BME280;36505;52.512;13.460;2023-09-19T11:33:27;100530.38;;;24.34;35.57
50550;BME280;36505;52.512;13.460;2023-09-19T11:49:16;100518.31;;;23.92;35.50
50550;BME280;36505;52.512;13.460;2023-09-19T11:51:46;100522.22;;;23.70;35.96
50550;BME280;36505;52.512;13.460;2023-09-19T11:54:14;100522.47;;;23.56;36.20
50550;BME280;36505;52.512;13.460;2023-09-19T11:57:00;100526.28;;;23.52;36.68
50550;BME280;36505;52.512;13.460;2023-09-19T11:59:30;100523.16;;;23.53;37.27
50550;BME280;36505;52.512;13.460;2023-09-19T12:02:05;100516.59;;;23.49;36.88
50550;BME280;36505;52.512;13.460;2023-09-19T12:07:12;100513.63;;;23.46;37.62
50550;BME280;36505;52.512;13.460;2023-09-19T12:09:42;100512.63;;;23.42;37.03
50550;BME280;36505;52.512;13.460;2023-09-19T12:12:10;100514.84;;;23.28;37.03
50550;BME280;36505;52.512;13.460;2023-09-19T12:14:38;100510.28;;;23.14;36.96
50550;BME280;36505;52.512;13.460;2023-09-19T12:17:04;100526.59;;;23.12;36.90
50550;BME280;36505;52.512;13.460;2023-09-19T12:19:30;100533.97;;;23.00;36.67
50550;BME280;36505;52.512;13.460;2023-09-19T12:22:00;100537.78;;;22.87;37.32
50550;BME280;36505;52.512;13.460;2023-09-19T12:24:29;100530.44;;;22.82;37.48
50550;BME280;36505;52.512;13.460;2023-09-19T12:27:06;100524.84;;;22.82;37.40
50550;BME280;36505;52.512;13.460;2023-09-19T12:29:41;100519.41;;;22.68;37.31
50550;BME280;36505;52.512;13.460;2023-09-19T12:32:07;100520.38;;;22.72;37.26
50550;BME280;36505;52.512;13.460;2023-09-19T12:34:33;100521.06;;;22.69;37.46
50550;BME280;36505;52.512;13.460;2023-09-19T12:37:15;100523.16;;;22.72;36.72
50550;BME280;36505;52.512;13.460;2023-09-19T12:40:07;100520.56;;;22.67;36.55
50550;BME280;36505;52.512;13.460;2023-09-19T12:42:48;100528.94;;;22.59;36.98
50550;BME280;36505;52.512;13.460;2023-09-19T12:45:14;100516.47;;;22.56;36.88
50550;BME280;36505;52.512;13.460;2023-09-19T12:51:05;100521.41;;;22.51;37.09
50550;BME280;36505;52.512;13.460;2023-09-19T12:56:08;100521.09;;;22.35;37.35
50550;BME280;36505;52.512;13.460;2023-09-19T12:58:57;100505.66;;;22.29;37.84
50550;BME280;36505;52.512;13.460;2023-09-19T13:01:25;100520.13;;;22.31;37.23
50550;BME280;36505;52.512;13.460;2023-09-19T13:04:13;100524.19;;;22.25;37.88
50550;BME280;36505;52.512;13.460;2023-09-19T13:06:43;100524.88;;;22.30;37.86
50550;BME280;36505;52.512;13.460;2023-09-19T13:09:10;100519.59;;;22.20;37.79
50550;BME280;36505;52.512;13.460;2023-09-19T13:11:37;100521.88;;;22.18;37.95
50550;BME280;36505;52.512;13.460;2023-09-19T13:14:24;100524.34;;;22.20;38.38
50550;BME280;36505;52.512;13.460;2023-09-19T13:19:48;100525.34;;;22.06;38.73
50550;BME280;36505;52.512;13.460;2023-09-19T13:25:16;100509.38;;;21.81;38.77
50550;BME280;36505;52.512;13.460;2023-09-19T13:27:52;100516.09;;;21.80;38.57
50550;BME280;36505;52.512;13.460;2023-09-19T13:30:20;100516.91;;;21.81;39.15
50550;BME280;36505;52.512;13.460;2023-09-19T13:32:46;100517.75;;;21.90;38.89
50550;BME280;36505;52.512;13.460;2023-09-19T13:35:15;100509.53;;;21.85;39.08
50550;BME280;36505;52.512;13.460;2023-09-19T13:37:41;100527.91;;;21.94;38.79
50550;BME280;36505;52.512;13.460;2023-09-19T13:42:34;100520.66;;;21.67;38.59
50550;BME280;36505;52.512;13.460;2023-09-19T13:44:59;100522.06;;;21.56;39.10
50550;BME280;36505;52.512;13.460;2023-09-19T13:47:25;100527.94;;;21.46;39.33
50550;BME280;36505;52.512;13.460;2023-09-19T13:49:52;100517.94;;;21.45;39.35
50550;BME280;36505;52.512;13.460;2023-09-19T13:52:19;100510.25;;;21.42;39.85
50550;BME280;36505;52.512;13.460;2023-09-19T13:54:44;100518.97;;;21.49;39.88
50550;BME280;36505;52.512;13.460;2023-09-19T13:57:09;100521.91;;;21.53;39.65